RA2505 RJOR-RJOA
Flight info
| Callsign | RA2505 |
|---|---|
| Flight time | 0h 36m |
| Altitude | 8000 |
| Route | TSUNO KIJYY SAEKI OB550 KORAK ASIMO RYUOH |
| Aircraft | C208/L-SDFGR/C |
Departure
| Time | 2026-04-12 01:06 |
|---|---|
| Airport | Tottori Sand Dunes Conan Airport (RJOR) |
Arrival
| Time | 2026-04-12 01:42 |
|---|---|
| Airport | Hiroshima Airport (RJOA) |
| Time | Latitude | Longitude | Altitude | Speed | Heading |
|---|---|---|---|---|---|
| 2026-04-12 01:02 | 35.52726 | 134.16664 | 48 ft | 0 kts | 92° |
| 2026-04-12 01:02 | 35.52726 | 134.16665 | 48 ft | 1 kts | 83° |
| 2026-04-12 01:03 | 35.52759 | 134.16663 | 48 ft | 9 kts | 309° |
| 2026-04-12 01:03 | 35.52798 | 134.16698 | 48 ft | 15 kts | 53° |
| 2026-04-12 01:03 | 35.52916 | 134.16716 | 49 ft | 20 kts | 6° |
| 2026-04-12 01:03 | 35.53002 | 134.16599 | 51 ft | 25 kts | 274° |
| 2026-04-12 01:04 | 35.53013 | 134.16364 | 50 ft | 31 kts | 274° |
| 2026-04-12 01:04 | 35.53022 | 134.16117 | 48 ft | 31 kts | 274° |
| 2026-04-12 01:04 | 35.53035 | 134.16001 | 47 ft | 6 kts | 100° |
| 2026-04-12 01:04 | 35.53031 | 134.16058 | 47 ft | 26 kts | 94° |
| 2026-04-12 01:05 | 35.53007 | 134.16485 | 51 ft | 72 kts | 94° |
| 2026-04-12 01:05 | 35.52979 | 134.17206 | 168 ft | 90 kts | 85° |
| 2026-04-12 01:05 | 35.52849 | 134.17976 | 371 ft | 99 kts | 111° |
| 2026-04-12 01:05 | 35.52261 | 134.18481 | 533 ft | 115 kts | 168° |
| 2026-04-12 01:06 | 35.51507 | 134.18128 | 699 ft | 124 kts | 225° |
| 2026-04-12 01:06 | 35.50951 | 134.17305 | 875 ft | 129 kts | 227° |
| 2026-04-12 01:06 | 35.50305 | 134.16486 | 1050 ft | 137 kts | 226° |
| 2026-04-12 01:06 | 35.49650 | 134.15598 | 1245 ft | 143 kts | 227° |
| 2026-04-12 01:07 | 35.48978 | 134.14683 | 1421 ft | 148 kts | 226° |
| 2026-04-12 01:07 | 35.48277 | 134.13743 | 1595 ft | 150 kts | 227° |
| 2026-04-12 01:07 | 35.47585 | 134.12776 | 1774 ft | 151 kts | 227° |
| 2026-04-12 01:08 | 35.46155 | 134.10863 | 2131 ft | 153 kts | 227° |
| 2026-04-12 01:08 | 35.45442 | 134.09889 | 2318 ft | 154 kts | 228° |
| 2026-04-12 01:08 | 35.44719 | 134.08915 | 2488 ft | 156 kts | 228° |
| 2026-04-12 01:08 | 35.43991 | 134.07934 | 2659 ft | 155 kts | 227° |
| 2026-04-12 01:09 | 35.43259 | 134.06963 | 2840 ft | 155 kts | 227° |
| 2026-04-12 01:09 | 35.42539 | 134.05972 | 3018 ft | 156 kts | 228° |
| 2026-04-12 01:09 | 35.41812 | 134.05000 | 3190 ft | 152 kts | 228° |
| 2026-04-12 01:09 | 35.41120 | 134.04040 | 3374 ft | 149 kts | 228° |
| 2026-04-12 01:10 | 35.40424 | 134.03104 | 3547 ft | 149 kts | 229° |
| 2026-04-12 01:10 | 35.39717 | 134.02162 | 3711 ft | 151 kts | 229° |
| 2026-04-12 01:10 | 35.39004 | 134.01202 | 3890 ft | 154 kts | 230° |
| 2026-04-12 01:10 | 35.38527 | 134.00556 | 4005 ft | 154 kts | 227° |
| 2026-04-12 01:11 | 35.37823 | 133.99592 | 4185 ft | 150 kts | 230° |
| 2026-04-12 01:11 | 35.37115 | 133.98649 | 4355 ft | 151 kts | 229° |
| 2026-04-12 01:11 | 35.36399 | 133.97703 | 4525 ft | 150 kts | 227° |
| 2026-04-12 01:11 | 35.35473 | 133.96455 | 4761 ft | 149 kts | 230° |
| 2026-04-12 01:12 | 35.35006 | 133.95822 | 4881 ft | 148 kts | 230° |
| 2026-04-12 01:12 | 35.34315 | 133.94888 | 5054 ft | 148 kts | 230° |
| 2026-04-12 01:12 | 35.33624 | 133.93962 | 5238 ft | 151 kts | 230° |
| 2026-04-12 01:12 | 35.32917 | 133.93013 | 5405 ft | 151 kts | 229° |
| 2026-04-12 01:13 | 35.32205 | 133.92065 | 5581 ft | 152 kts | 232° |
| 2026-04-12 01:13 | 35.31504 | 133.91113 | 5752 ft | 150 kts | 231° |
| 2026-04-12 01:13 | 35.30804 | 133.90171 | 5929 ft | 151 kts | 232° |
| 2026-04-12 01:13 | 35.30084 | 133.89209 | 6105 ft | 156 kts | 233° |
| 2026-04-12 01:14 | 35.29348 | 133.88221 | 6281 ft | 157 kts | 233° |
| 2026-04-12 01:14 | 35.28619 | 133.87235 | 6458 ft | 155 kts | 234° |
| 2026-04-12 01:14 | 35.27892 | 133.86262 | 6631 ft | 154 kts | 233° |
| 2026-04-12 01:14 | 35.27173 | 133.85299 | 6803 ft | 155 kts | 233° |
| 2026-04-12 01:15 | 35.26443 | 133.84321 | 6980 ft | 155 kts | 233° |
| 2026-04-12 01:15 | 35.25714 | 133.83344 | 7156 ft | 155 kts | 234° |
| 2026-04-12 01:15 | 35.24987 | 133.82368 | 7331 ft | 155 kts | 234° |
| 2026-04-12 01:15 | 35.24248 | 133.81417 | 7501 ft | 154 kts | 232° |
| 2026-04-12 01:16 | 35.23541 | 133.80455 | 7661 ft | 150 kts | 236° |
| 2026-04-12 01:16 | 35.22851 | 133.79512 | 7834 ft | 147 kts | 235° |
| 2026-04-12 01:16 | 35.22156 | 133.78574 | 7891 ft | 154 kts | 235° |
| 2026-04-12 01:16 | 35.21413 | 133.77575 | 7880 ft | 164 kts | 234° |
| 2026-04-12 01:17 | 35.20630 | 133.76525 | 7887 ft | 170 kts | 234° |
| 2026-04-12 01:17 | 35.19820 | 133.75441 | 7885 ft | 176 kts | 234° |
| 2026-04-12 01:17 | 35.18987 | 133.74332 | 7885 ft | 177 kts | 234° |
| 2026-04-12 01:17 | 35.18156 | 133.73226 | 7888 ft | 177 kts | 234° |
| 2026-04-12 01:18 | 35.17325 | 133.72113 | 7884 ft | 177 kts | 234° |
| 2026-04-12 01:18 | 35.16500 | 133.71012 | 7891 ft | 178 kts | 233° |
| 2026-04-12 01:18 | 35.15651 | 133.69886 | 7861 ft | 181 kts | 233° |
| 2026-04-12 01:18 | 35.14834 | 133.68738 | 7874 ft | 177 kts | 233° |
| 2026-04-12 01:19 | 35.13985 | 133.67646 | 7879 ft | 177 kts | 232° |
| 2026-04-12 01:19 | 35.13144 | 133.66556 | 7891 ft | 176 kts | 233° |
| 2026-04-12 01:19 | 35.12315 | 133.65438 | 7888 ft | 178 kts | 234° |
| 2026-04-12 01:19 | 35.11478 | 133.64313 | 7879 ft | 179 kts | 233° |
| 2026-04-12 01:20 | 35.10635 | 133.63194 | 7881 ft | 180 kts | 233° |
| 2026-04-12 01:20 | 35.09790 | 133.62071 | 7877 ft | 178 kts | 233° |
| 2026-04-12 01:20 | 35.08959 | 133.60952 | 7878 ft | 177 kts | 233° |
| 2026-04-12 01:20 | 35.08126 | 133.59837 | 7876 ft | 176 kts | 233° |
| 2026-04-12 01:21 | 35.07293 | 133.58742 | 7879 ft | 176 kts | 233° |
| 2026-04-12 01:21 | 35.06460 | 133.57642 | 7876 ft | 176 kts | 233° |
| 2026-04-12 01:21 | 35.05664 | 133.56532 | 7885 ft | 174 kts | 233° |
| 2026-04-12 01:21 | 35.04820 | 133.55460 | 7887 ft | 176 kts | 232° |
| 2026-04-12 01:22 | 35.03980 | 133.54357 | 7880 ft | 179 kts | 233° |
| 2026-04-12 01:22 | 35.03139 | 133.53226 | 7874 ft | 180 kts | 233° |
| 2026-04-12 01:22 | 35.02303 | 133.52112 | 7874 ft | 180 kts | 233° |
| 2026-04-12 01:22 | 35.01456 | 133.50982 | 7873 ft | 180 kts | 233° |
| 2026-04-12 01:23 | 35.00607 | 133.49855 | 7872 ft | 180 kts | 232° |
| 2026-04-12 01:23 | 34.99759 | 133.48747 | 7878 ft | 178 kts | 233° |
| 2026-04-12 01:23 | 34.98924 | 133.47627 | 7876 ft | 179 kts | 233° |
| 2026-04-12 01:23 | 34.98082 | 133.46510 | 7867 ft | 179 kts | 232° |
| 2026-04-12 01:24 | 34.97246 | 133.45403 | 7873 ft | 177 kts | 233° |
| 2026-04-12 01:24 | 34.96412 | 133.44295 | 7864 ft | 177 kts | 233° |
| 2026-04-12 01:24 | 34.95585 | 133.43203 | 7864 ft | 175 kts | 233° |
| 2026-04-12 01:24 | 34.94767 | 133.42120 | 7865 ft | 174 kts | 233° |
| 2026-04-12 01:25 | 34.93952 | 133.41037 | 7870 ft | 173 kts | 233° |
| 2026-04-12 01:25 | 34.93140 | 133.39967 | 7871 ft | 175 kts | 233° |
| 2026-04-12 01:25 | 34.92302 | 133.38855 | 7869 ft | 176 kts | 233° |
| 2026-04-12 01:25 | 34.91474 | 133.37759 | 7871 ft | 177 kts | 233° |
| 2026-04-12 01:26 | 34.90649 | 133.36670 | 7872 ft | 177 kts | 233° |
| 2026-04-12 01:26 | 34.89815 | 133.35567 | 7880 ft | 177 kts | 233° |
| 2026-04-12 01:26 | 34.88979 | 133.34464 | 7875 ft | 177 kts | 233° |
| 2026-04-12 01:26 | 34.88144 | 133.33361 | 7872 ft | 177 kts | 233° |
| 2026-04-12 01:27 | 34.87305 | 133.32256 | 7879 ft | 177 kts | 233° |
| 2026-04-12 01:27 | 34.86470 | 133.31150 | 7876 ft | 178 kts | 233° |
| 2026-04-12 01:27 | 34.85633 | 133.30045 | 7871 ft | 177 kts | 233° |
| 2026-04-12 01:27 | 34.84793 | 133.28944 | 7872 ft | 179 kts | 233° |
| 2026-04-12 01:28 | 34.83953 | 133.27831 | 7871 ft | 178 kts | 233° |
| 2026-04-12 01:28 | 34.83116 | 133.26720 | 7875 ft | 179 kts | 233° |
| 2026-04-12 01:28 | 34.82272 | 133.25614 | 7870 ft | 178 kts | 233° |
| 2026-04-12 01:28 | 34.81434 | 133.24508 | 7867 ft | 178 kts | 233° |
| 2026-04-12 01:29 | 34.80594 | 133.23407 | 7865 ft | 176 kts | 232° |
| 2026-04-12 01:29 | 34.79760 | 133.22310 | 7865 ft | 176 kts | 233° |
| 2026-04-12 01:29 | 34.78928 | 133.21209 | 7863 ft | 177 kts | 233° |
| 2026-04-12 01:30 | 34.76795 | 133.18406 | 7872 ft | 176 kts | 233° |
| 2026-04-12 01:31 | 34.72981 | 133.13396 | 7867 ft | 179 kts | 233° |
| 2026-04-12 01:31 | 34.72137 | 133.12289 | 7870 ft | 178 kts | 232° |
| 2026-04-12 01:32 | 34.70629 | 133.10305 | 7870 ft | 177 kts | 232° |
| 2026-04-12 01:32 | 34.69794 | 133.09215 | 7866 ft | 176 kts | 232° |
| 2026-04-12 01:32 | 34.68959 | 133.08121 | 7863 ft | 176 kts | 232° |
| 2026-04-12 01:32 | 34.68127 | 133.07027 | 7864 ft | 177 kts | 233° |
| 2026-04-12 01:33 | 34.67282 | 133.05928 | 7864 ft | 176 kts | 233° |
| 2026-04-12 01:33 | 34.66456 | 133.04833 | 7870 ft | 176 kts | 232° |
| 2026-04-12 01:33 | 34.65622 | 133.03731 | 7859 ft | 177 kts | 233° |
| 2026-04-12 01:33 | 34.64791 | 133.02650 | 7857 ft | 178 kts | 232° |
| 2026-04-12 01:34 | 34.63944 | 133.01557 | 7859 ft | 178 kts | 232° |
| 2026-04-12 01:34 | 34.63106 | 133.00455 | 7862 ft | 177 kts | 233° |
| 2026-04-12 01:34 | 34.62274 | 132.99363 | 7858 ft | 175 kts | 232° |
| 2026-04-12 01:34 | 34.61444 | 132.98278 | 7854 ft | 175 kts | 232° |
| 2026-04-12 01:35 | 34.60613 | 132.97190 | 7858 ft | 176 kts | 232° |
| 2026-04-12 01:35 | 34.59780 | 132.96104 | 7810 ft | 177 kts | 232° |
| 2026-04-12 01:35 | 34.58917 | 132.94975 | 7603 ft | 185 kts | 232° |
| 2026-04-12 01:35 | 34.58041 | 132.93833 | 7377 ft | 183 kts | 232° |
| 2026-04-12 01:36 | 34.57175 | 132.92706 | 7164 ft | 182 kts | 231° |
| 2026-04-12 01:36 | 34.56312 | 132.91584 | 6935 ft | 181 kts | 231° |
| 2026-04-12 01:36 | 34.55454 | 132.90466 | 6704 ft | 182 kts | 231° |
| 2026-04-12 01:36 | 34.54595 | 132.89344 | 6474 ft | 180 kts | 231° |
| 2026-04-12 01:37 | 34.53751 | 132.88235 | 6257 ft | 181 kts | 231° |
| 2026-04-12 01:37 | 34.52890 | 132.87112 | 6042 ft | 183 kts | 231° |
| 2026-04-12 01:37 | 34.52026 | 132.85997 | 5702 ft | 176 kts | 231° |
| 2026-04-12 01:37 | 34.51214 | 132.84931 | 5312 ft | 170 kts | 231° |
| 2026-04-12 01:38 | 34.50423 | 132.83896 | 4933 ft | 166 kts | 230° |
| 2026-04-12 01:38 | 34.49633 | 132.82870 | 4558 ft | 168 kts | 229° |
| 2026-04-12 01:38 | 34.48864 | 132.81863 | 4167 ft | 156 kts | 229° |
| 2026-04-12 01:38 | 34.48125 | 132.80900 | 3789 ft | 159 kts | 229° |
| 2026-04-12 01:39 | 34.47338 | 132.79945 | 3469 ft | 154 kts | 218° |
| 2026-04-12 01:39 | 34.46381 | 132.79549 | 3080 ft | 145 kts | 180° |
| 2026-04-12 01:39 | 34.45426 | 132.79638 | 3001 ft | 131 kts | 153° |
| 2026-04-12 01:39 | 34.44792 | 132.80414 | 2718 ft | 137 kts | 121° |
| 2026-04-12 01:40 | 34.44362 | 132.81452 | 2481 ft | 140 kts | 105° |
| 2026-04-12 01:40 | 34.44082 | 132.82579 | 2301 ft | 141 kts | 106° |
| 2026-04-12 01:40 | 34.43851 | 132.83717 | 2119 ft | 143 kts | 102° |
| 2026-04-12 01:40 | 34.43702 | 132.84915 | 2029 ft | 143 kts | 97° |
| 2026-04-12 01:41 | 34.43605 | 132.86118 | 1862 ft | 144 kts | 93° |
| 2026-04-12 01:41 | 34.43605 | 132.87279 | 1664 ft | 122 kts | 90° |
| 2026-04-12 01:41 | 34.43624 | 132.88229 | 1506 ft | 104 kts | 90° |
| 2026-04-12 01:41 | 34.43615 | 132.89063 | 1356 ft | 94 kts | 92° |
| 2026-04-12 01:42 | 34.43616 | 132.89842 | 1204 ft | 89 kts | 90° |
| 2026-04-12 01:42 | 34.43607 | 132.90555 | 1100 ft | 78 kts | 91° |
| 2026-04-12 01:42 | 34.43603 | 132.91136 | 1090 ft | 55 kts | 89° |
| 2026-04-12 01:42 | 34.43636 | 132.91515 | 1091 ft | 31 kts | 35° |
| 2026-04-12 01:43 | 34.43794 | 132.91555 | 1087 ft | 16 kts | 352° |
| 2026-04-12 01:43 | 34.43897 | 132.91554 | 1078 ft | 19 kts | 359° |
| 2026-04-12 01:43 | 34.43917 | 132.91554 | 1077 ft | 0 kts | 358° |